sensor_id;sensor_type;location;lat;lon;timestamp;temperature;humidity
39099;DHT22;24844;52.380;7.018;2022-09-09T00:04:06;15.70;99.90
39099;DHT22;24844;52.380;7.018;2022-09-09T00:06:52;15.90;99.90
39099;DHT22;24844;52.380;7.018;2022-09-09T00:09:24;15.90;99.90
39099;DHT22;24844;52.380;7.018;2022-09-09T00:11:56;15.80;99.90
39099;DHT22;24844;52.380;7.018;2022-09-09T00:17:00;15.80;99.90
39099;DHT22;24844;52.380;7.018;2022-09-09T00:19:38;15.70;99.90
39099;DHT22;24844;52.380;7.018;2022-09-09T00:27:11;15.70;99.90
39099;DHT22;24844;52.380;7.018;2022-09-09T00:29:46;15.60;99.90
39099;DHT22;24844;52.380;7.018;2022-09-09T00:32:16;15.90;99.90
39099;DHT22;24844;52.380;7.018;2022-09-09T00:34:49;15.90;99.90
39099;DHT22;24844;52.380;7.018;2022-09-09T00:37:16;15.90;99.90
39099;DHT22;24844;52.380;7.018;2022-09-09T00:39:47;15.70;99.90
39099;DHT22;24844;52.380;7.018;2022-09-09T00:42:24;15.50;99.90
39099;DHT22;24844;52.380;7.018;2022-09-09T00:45:01;15.40;99.90
39099;DHT22;24844;52.380;7.018;2022-09-09T00:56:00;15.50;99.90
39099;DHT22;24844;52.380;7.018;2022-09-09T00:58:29;15.50;99.90
39099;DHT22;24844;52.380;7.018;2022-09-09T01:01:08;15.50;99.90
39099;DHT22;24844;52.380;7.018;2022-09-09T01:03:54;15.50;99.90
39099;DHT22;24844;52.380;7.018;2022-09-09T01:06:30;15.50;99.90
39099;DHT22;24844;52.380;7.018;2022-09-09T01:12:01;15.40;99.90
39099;DHT22;24844;52.380;7.018;2022-09-09T01:17:16;15.40;99.90
39099;DHT22;24844;52.380;7.018;2022-09-09T01:22:34;15.40;99.90
39099;DHT22;24844;52.380;7.018;2022-09-09T01:27:44;15.40;99.90
39099;DHT22;24844;52.380;7.018;2022-09-09T01:30:13;15.50;99.90
39099;DHT22;24844;52.380;7.018;2022-09-09T01:32:45;15.50;99.90
39099;DHT22;24844;52.380;7.018;2022-09-09T01:35:42;15.70;99.90
39099;DHT22;24844;52.380;7.018;2022-09-09T01:38:09;15.60;99.90
39099;DHT22;24844;52.380;7.018;2022-09-09T01:40:35;15.30;99.90
39099;DHT22;24844;52.380;7.018;2022-09-09T01:43:02;15.40;99.90
39099;DHT22;24844;52.380;7.018;2022-09-09T01:45:28;15.40;99.90
39099;DHT22;24844;52.380;7.018;2022-09-09T01:47:55;15.30;99.90
39099;DHT22;24844;52.380;7.018;2022-09-09T01:50:22;15.20;99.90
39099;DHT22;24844;52.380;7.018;2022-09-09T01:52:52;15.20;99.90
39099;DHT22;24844;52.380;7.018;2022-09-09T01:55:26;15.20;99.90
39099;DHT22;24844;52.380;7.018;2022-09-09T02:00:37;15.00;99.90
39099;DHT22;24844;52.380;7.018;2022-09-09T02:03:11;14.90;99.90
39099;DHT22;24844;52.380;7.018;2022-09-09T02:05:45;15.00;99.90
39099;DHT22;24844;52.380;7.018;2022-09-09T02:08:26;15.00;99.90
39099;DHT22;24844;52.380;7.018;2022-09-09T02:11:15;15.00;99.90
39099;DHT22;24844;52.380;7.018;2022-09-09T02:13:44;14.90;99.90
39099;DHT22;24844;52.380;7.018;2022-09-09T02:16:35;14.70;99.90
39099;DHT22;24844;52.380;7.018;2022-09-09T02:19:06;14.50;99.90
39099;DHT22;24844;52.380;7.018;2022-09-09T02:21:33;14.40;99.90
39099;DHT22;24844;52.380;7.018;2022-09-09T02:24:04;14.40;99.90
39099;DHT22;24844;52.380;7.018;2022-09-09T02:26:32;14.40;99.90
39099;DHT22;24844;52.380;7.018;2022-09-09T02:29:00;14.40;99.90
39099;DHT22;24844;52.380;7.018;2022-09-09T02:31:26;14.40;99.90
39099;DHT22;24844;52.380;7.018;2022-09-09T02:33:56;14.20;99.90
39099;DHT22;24844;52.380;7.018;2022-09-09T02:36:26;14.30;99.90
39099;DHT22;24844;52.380;7.018;2022-09-09T02:38:52;14.30;99.90
39099;DHT22;24844;52.380;7.018;2022-09-09T02:41:30;14.20;99.90
39099;DHT22;24844;52.380;7.018;2022-09-09T02:43:57;14.20;99.90
39099;DHT22;24844;52.380;7.018;2022-09-09T02:52:05;14.20;99.90
39099;DHT22;24844;52.380;7.018;2022-09-09T02:54:33;14.20;99.90
39099;DHT22;24844;52.380;7.018;2022-09-09T02:57:17;14.30;99.90
39099;DHT22;24844;52.380;7.018;2022-09-09T02:59:44;14.30;99.90
39099;DHT22;24844;52.380;7.018;2022-09-09T03:02:11;14.40;99.90
39099;DHT22;24844;52.380;7.018;2022-09-09T03:04:38;14.50;99.90
39099;DHT22;24844;52.380;7.018;2022-09-09T03:07:04;14.30;99.90
39099;DHT22;24844;52.380;7.018;2022-09-09T03:09:30;14.20;99.90
39099;DHT22;24844;52.380;7.018;2022-09-09T03:11:58;14.10;99.90
39099;DHT22;24844;52.380;7.018;2022-09-09T03:14:23;14.20;99.90
39099;DHT22;24844;52.380;7.018;2022-09-09T03:16:52;14.30;99.90
39099;DHT22;24844;52.380;7.018;2022-09-09T03:19:18;14.10;99.90
39099;DHT22;24844;52.380;7.018;2022-09-09T03:21:47;14.20;99.90
39099;DHT22;24844;52.380;7.018;2022-09-09T03:24:13;14.40;99.90
39099;DHT22;24844;52.380;7.018;2022-09-09T03:26:40;14.20;99.90
39099;DHT22;24844;52.380;7.018;2022-09-09T03:29:07;14.00;99.90
39099;DHT22;24844;52.380;7.018;2022-09-09T03:31:33;14.00;99.90
39099;DHT22;24844;52.380;7.018;2022-09-09T03:34:00;14.00;99.90
39099;DHT22;24844;52.380;7.018;2022-09-09T03:36:26;14.00;99.90
39099;DHT22;24844;52.380;7.018;2022-09-09T03:38:52;14.00;99.90
39099;DHT22;24844;52.380;7.018;2022-09-09T03:41:20;13.90;99.90
39099;DHT22;24844;52.380;7.018;2022-09-09T03:43:46;13.90;99.90
39099;DHT22;24844;52.380;7.018;2022-09-09T03:46:11;13.90;99.90
39099;DHT22;24844;52.380;7.018;2022-09-09T03:48:37;13.90;99.90
39099;DHT22;24844;52.380;7.018;2022-09-09T03:51:02;13.80;99.90
39099;DHT22;24844;52.380;7.018;2022-09-09T03:53:29;13.80;99.90
39099;DHT22;24844;52.380;7.018;2022-09-09T03:55:55;13.80;99.90
39099;DHT22;24844;52.380;7.018;2022-09-09T03:58:22;13.90;99.90
39099;DHT22;24844;52.380;7.018;2022-09-09T04:00:57;13.90;99.90
39099;DHT22;24844;52.380;7.018;2022-09-09T04:03:24;14.00;99.90
39099;DHT22;24844;52.380;7.018;2022-09-09T04:05:51;13.90;99.90
39099;DHT22;24844;52.380;7.018;2022-09-09T04:08:18;13.80;99.90
39099;DHT22;24844;52.380;7.018;2022-09-09T04:10:45;13.70;99.90
39099;DHT22;24844;52.380;7.018;2022-09-09T04:13:13;13.80;99.90
39099;DHT22;24844;52.380;7.018;2022-09-09T04:15:40;13.70;99.90
39099;DHT22;24844;52.380;7.018;2022-09-09T04:18:06;13.70;99.90
39099;DHT22;24844;52.380;7.018;2022-09-09T04:20:32;13.60;99.90
39099;DHT22;24844;52.380;7.018;2022-09-09T04:22:58;13.70;99.90
39099;DHT22;24844;52.380;7.018;2022-09-09T04:25:23;13.60;99.90
39099;DHT22;24844;52.380;7.018;2022-09-09T04:27:54;13.50;99.90
39099;DHT22;24844;52.380;7.018;2022-09-09T04:30:20;13.50;99.90
39099;DHT22;24844;52.380;7.018;2022-09-09T04:32:46;13.40;99.90
39099;DHT22;24844;52.380;7.018;2022-09-09T04:35:11;13.50;99.90
39099;DHT22;24844;52.380;7.018;2022-09-09T04:37:37;13.50;99.90
39099;DHT22;24844;52.380;7.018;2022-09-09T04:40:03;13.40;99.90
39099;DHT22;24844;52.380;7.018;2022-09-09T04:42:28;13.40;99.90
39099;DHT22;24844;52.380;7.018;2022-09-09T04:44:54;13.40;99.90
39099;DHT22;24844;52.380;7.018;2022-09-09T04:47:19;13.50;99.90
39099;DHT22;24844;52.380;7.018;2022-09-09T04:49:45;13.30;99.90
39099;DHT22;24844;52.380;7.018;2022-09-09T04:52:11;13.40;99.90
39099;DHT22;24844;52.380;7.018;2022-09-09T04:54:36;13.60;99.90
39099;DHT22;24844;52.380;7.018;2022-09-09T04:57:02;13.70;99.90
39099;DHT22;24844;52.380;7.018;2022-09-09T04:59:28;13.80;99.90
39099;DHT22;24844;52.380;7.018;2022-09-09T05:01:53;13.70;99.90
39099;DHT22;24844;52.380;7.018;2022-09-09T05:04:21;13.70;99.90
39099;DHT22;24844;52.380;7.018;2022-09-09T05:06:46;13.70;99.90
39099;DHT22;24844;52.380;7.018;2022-09-09T05:09:12;13.60;99.90
39099;DHT22;24844;52.380;7.018;2022-09-09T05:11:38;13.40;99.90
39099;DHT22;24844;52.380;7.018;2022-09-09T05:14:04;13.50;99.90
39099;DHT22;24844;52.380;7.018;2022-09-09T05:16:30;13.60;99.90
39099;DHT22;24844;52.380;7.018;2022-09-09T05:18:56;13.40;99.90
39099;DHT22;24844;52.380;7.018;2022-09-09T05:21:23;13.40;99.90
39099;DHT22;24844;52.380;7.018;2022-09-09T05:23:50;13.40;99.90
39099;DHT22;24844;52.380;7.018;2022-09-09T05:26:18;13.30;99.90
39099;DHT22;24844;52.380;7.018;2022-09-09T05:28:45;13.40;99.90
39099;DHT22;24844;52.380;7.018;2022-09-09T05:31:12;13.40;99.90
39099;DHT22;24844;52.380;7.018;2022-09-09T05:33:39;13.40;99.90
39099;DHT22;24844;52.380;7.018;2022-09-09T05:36:11;13.50;99.90
39099;DHT22;24844;52.380;7.018;2022-09-09T05:38:38;13.50;99.90
39099;DHT22;24844;52.380;7.018;2022-09-09T05:41:05;13.60;99.90
39099;DHT22;24844;52.380;7.018;2022-09-09T05:43:31;13.60;99.90
39099;DHT22;24844;52.380;7.018;2022-09-09T05:46:30;13.60;99.90
39099;DHT22;24844;52.380;7.018;2022-09-09T05:48:55;13.90;99.90
39099;DHT22;24844;52.380;7.018;2022-09-09T05:51:23;13.90;99.90
39099;DHT22;24844;52.380;7.018;2022-09-09T05:53:50;13.90;99.90
39099;DHT22;24844;52.380;7.018;2022-09-09T05:56:21;14.00;99.90
39099;DHT22;24844;52.380;7.018;2022-09-09T05:58:48;14.00;99.90
39099;DHT22;24844;52.380;7.018;2022-09-09T06:01:16;13.90;99.90
39099;DHT22;24844;52.380;7.018;2022-09-09T06:03:43;14.00;99.90
39099;DHT22;24844;52.380;7.018;2022-09-09T06:06:12;14.00;99.90
39099;DHT22;24844;52.380;7.018;2022-09-09T06:08:41;14.10;99.90
39099;DHT22;24844;52.380;7.018;2022-09-09T06:11:14;14.20;99.90
39099;DHT22;24844;52.380;7.018;2022-09-09T06:13:41;14.40;99.90
39099;DHT22;24844;52.380;7.018;2022-09-09T06:16:11;14.30;99.90
39099;DHT22;24844;52.380;7.018;2022-09-09T06:18:41;14.40;99.90
39099;DHT22;24844;52.380;7.018;2022-09-09T06:21:11;14.40;99.90
39099;DHT22;24844;52.380;7.018;2022-09-09T06:23:39;14.50;99.90
39099;DHT22;24844;52.380;7.018;2022-09-09T06:26:12;14.50;99.90
39099;DHT22;24844;52.380;7.018;2022-09-09T06:28:38;14.50;99.90
39099;DHT22;24844;52.380;7.018;2022-09-09T06:31:09;14.60;99.90
39099;DHT22;24844;52.380;7.018;2022-09-09T06:33:37;14.60;99.90
39099;DHT22;24844;52.380;7.018;2022-09-09T06:36:07;14.70;99.90
39099;DHT22;24844;52.380;7.018;2022-09-09T06:38:33;14.70;99.90
39099;DHT22;24844;52.380;7.018;2022-09-09T06:40:59;14.80;99.90
39099;DHT22;24844;52.380;7.018;2022-09-09T06:43:26;14.90;99.90
39099;DHT22;24844;52.380;7.018;2022-09-09T06:45:59;15.10;99.90
39099;DHT22;24844;52.380;7.018;2022-09-09T06:48:25;15.10;99.90
39099;DHT22;24844;52.380;7.018;2022-09-09T06:53:32;15.20;99.90
39099;DHT22;24844;52.380;7.018;2022-09-09T06:56:02;15.30;99.90
39099;DHT22;24844;52.380;7.018;2022-09-09T06:58:28;15.30;99.90
39099;DHT22;24844;52.380;7.018;2022-09-09T07:01:05;15.40;99.90
39099;DHT22;24844;52.380;7.018;2022-09-09T07:03:32;15.50;99.90
39099;DHT22;24844;52.380;7.018;2022-09-09T07:05:59;15.50;99.90
39099;DHT22;24844;52.380;7.018;2022-09-09T07:08:25;15.60;99.90
39099;DHT22;24844;52.380;7.018;2022-09-09T07:10:52;15.70;99.90
39099;DHT22;24844;52.380;7.018;2022-09-09T07:13:24;15.90;99.90
39099;DHT22;24844;52.380;7.018;2022-09-09T07:15:51;15.90;99.90
39099;DHT22;24844;52.380;7.018;2022-09-09T07:18:17;16.00;99.90
39099;DHT22;24844;52.380;7.018;2022-09-09T07:20:42;16.00;99.90
39099;DHT22;24844;52.380;7.018;2022-09-09T07:23:08;16.30;99.90
39099;DHT22;24844;52.380;7.018;2022-09-09T07:25:33;16.60;99.90
39099;DHT22;24844;52.380;7.018;2022-09-09T07:27:59;16.40;99.90
39099;DHT22;24844;52.380;7.018;2022-09-09T07:30:24;16.40;99.90
39099;DHT22;24844;52.380;7.018;2022-09-09T07:32:51;16.40;99.90
39099;DHT22;24844;52.380;7.018;2022-09-09T07:35:17;16.50;99.90
39099;DHT22;24844;52.380;7.018;2022-09-09T07:37:43;16.50;99.90
39099;DHT22;24844;52.380;7.018;2022-09-09T07:40:09;16.60;99.90
39099;DHT22;24844;52.380;7.018;2022-09-09T07:42:35;16.50;99.90
39099;DHT22;24844;52.380;7.018;2022-09-09T07:45:03;16.50;99.90
39099;DHT22;24844;52.380;7.018;2022-09-09T07:47:29;16.40;99.90
39099;DHT22;24844;52.380;7.018;2022-09-09T07:49:54;16.40;99.90
39099;DHT22;24844;52.380;7.018;2022-09-09T07:52:21;16.60;99.90
39099;DHT22;24844;52.380;7.018;2022-09-09T07:54:46;16.80;99.90
39099;DHT22;24844;52.380;7.018;2022-09-09T07:57:12;16.90;99.90
39099;DHT22;24844;52.380;7.018;2022-09-09T07:59:38;17.00;99.90
39099;DHT22;24844;52.380;7.018;2022-09-09T08:02:03;17.20;99.90
39099;DHT22;24844;52.380;7.018;2022-09-09T08:04:29;18.00;99.90
39099;DHT22;24844;52.380;7.018;2022-09-09T08:07:00;18.50;99.90
39099;DHT22;24844;52.380;7.018;2022-09-09T08:09:27;19.40;99.90
39099;DHT22;24844;52.380;7.018;2022-09-09T08:11:55;19.00;99.90
39099;DHT22;24844;52.380;7.018;2022-09-09T08:14:22;18.60;99.90
39099;DHT22;24844;52.380;7.018;2022-09-09T08:16:49;18.20;99.90
39099;DHT22;24844;52.380;7.018;2022-09-09T08:19:15;18.10;99.90
39099;DHT22;24844;52.380;7.018;2022-09-09T08:21:41;18.30;99.90
39099;DHT22;24844;52.380;7.018;2022-09-09T08:24:09;18.10;99.90
39099;DHT22;24844;52.380;7.018;2022-09-09T08:26:42;17.90;99.90
39099;DHT22;24844;52.380;7.018;2022-09-09T08:29:10;17.60;99.90
39099;DHT22;24844;52.380;7.018;2022-09-09T08:31:48;17.90;99.90
39099;DHT22;24844;52.380;7.018;2022-09-09T08:34:14;18.10;99.90
39099;DHT22;24844;52.380;7.018;2022-09-09T08:36:43;18.60;99.90
39099;DHT22;24844;52.380;7.018;2022-09-09T08:39:11;18.90;99.90
39099;DHT22;24844;52.380;7.018;2022-09-09T08:44:37;19.20;99.90
39099;DHT22;24844;52.380;7.018;2022-09-09T08:52:30;19.40;99.90
39099;DHT22;24844;52.380;7.018;2022-09-09T08:55:27;19.50;99.90
39099;DHT22;24844;52.380;7.018;2022-09-09T08:57:57;20.10;99.90
39099;DHT22;24844;52.380;7.018;2022-09-09T09:00:31;19.60;99.90
39099;DHT22;24844;52.380;7.018;2022-09-09T09:05:31;20.50;99.90
39099;DHT22;24844;52.380;7.018;2022-09-09T09:10:51;20.90;99.90
39099;DHT22;24844;52.380;7.018;2022-09-09T09:18:49;21.00;99.90
39099;DHT22;24844;52.380;7.018;2022-09-09T09:21:32;20.80;99.90
39099;DHT22;24844;52.380;7.018;2022-09-09T09:24:00;21.00;99.90
39099;DHT22;24844;52.380;7.018;2022-09-09T09:26:35;21.30;99.90
39099;DHT22;24844;52.380;7.018;2022-09-09T09:29:10;20.60;99.90
39099;DHT22;24844;52.380;7.018;2022-09-09T09:31:37;20.80;99.90
39099;DHT22;24844;52.380;7.018;2022-09-09T09:34:02;21.90;99.90
39099;DHT22;24844;52.380;7.018;2022-09-09T09:36:39;22.90;99.90
39099;DHT22;24844;52.380;7.018;2022-09-09T09:39:06;23.20;99.90
39099;DHT22;24844;52.380;7.018;2022-09-09T09:41:40;22.80;99.90
39099;DHT22;24844;52.380;7.018;2022-09-09T09:44:28;23.20;99.90
39099;DHT22;24844;52.380;7.018;2022-09-09T09:47:18;22.80;99.90
39099;DHT22;24844;52.380;7.018;2022-09-09T09:49:57;23.40;99.90
39099;DHT22;24844;52.380;7.018;2022-09-09T09:52:26;24.80;99.90
39099;DHT22;24844;52.380;7.018;2022-09-09T09:54:54;25.40;99.90
39099;DHT22;24844;52.380;7.018;2022-09-09T09:57:26;25.80;99.90
39099;DHT22;24844;52.380;7.018;2022-09-09T10:00:03;25.30;99.90
39099;DHT22;24844;52.380;7.018;2022-09-09T10:02:40;24.10;99.90
39099;DHT22;24844;52.380;7.018;2022-09-09T10:05:21;23.30;99.90
39099;DHT22;24844;52.380;7.018;2022-09-09T10:08:00;23.10;99.90
39099;DHT22;24844;52.380;7.018;2022-09-09T10:13:36;22.30;99.90
39099;DHT22;24844;52.380;7.018;2022-09-09T10:35:02;24.20;99.90
39099;DHT22;24844;52.380;7.018;2022-09-09T10:40:43;24.60;99.90
39099;DHT22;24844;52.380;7.018;2022-09-09T10:46:13;25.10;99.90
39099;DHT22;24844;52.380;7.018;2022-09-09T10:51:43;24.80;99.90
39099;DHT22;24844;52.380;7.018;2022-09-09T10:56:57;25.40;99.90
39099;DHT22;24844;52.380;7.018;2022-09-09T10:59:28;25.30;99.20
39099;DHT22;24844;52.380;7.018;2022-09-09T11:02:05;23.50;99.90
39099;DHT22;24844;52.380;7.018;2022-09-09T11:04:46;23.10;99.90
39099;DHT22;24844;52.380;7.018;2022-09-09T11:07:24;23.20;99.90
39099;DHT22;24844;52.380;7.018;2022-09-09T11:09:55;22.70;99.90
39099;DHT22;24844;52.380;7.018;2022-09-09T11:12:23;22.60;99.90
39099;DHT22;24844;52.380;7.018;2022-09-09T11:14:56;23.10;99.90
39099;DHT22;24844;52.380;7.018;2022-09-09T11:17:36;23.20;99.90
39099;DHT22;24844;52.380;7.018;2022-09-09T11:20:06;23.70;99.90
39099;DHT22;24844;52.380;7.018;2022-09-09T11:25:25;22.80;99.90
39099;DHT22;24844;52.380;7.018;2022-09-09T11:28:57;22.70;99.90
39099;DHT22;24844;52.380;7.018;2022-09-09T11:41:16;21.50;99.90
39099;DHT22;24844;52.380;7.018;2022-09-09T11:43:45;21.70;99.90
39099;DHT22;24844;52.380;7.018;2022-09-09T11:46:14;21.80;99.90
39099;DHT22;24844;52.380;7.018;2022-09-09T11:48:42;22.20;99.90
39099;DHT22;24844;52.380;7.018;2022-09-09T11:51:29;22.00;99.90
39099;DHT22;24844;52.380;7.018;2022-09-09T11:54:02;21.80;99.90
39099;DHT22;24844;52.380;7.018;2022-09-09T11:56:33;21.50;99.90
39099;DHT22;24844;52.380;7.018;2022-09-09T11:59:05;21.20;99.90
39099;DHT22;24844;52.380;7.018;2022-09-09T12:01:39;21.30;99.90
39099;DHT22;24844;52.380;7.018;2022-09-09T12:04:16;21.80;99.90
39099;DHT22;24844;52.380;7.018;2022-09-09T12:07:02;21.90;99.90
39099;DHT22;24844;52.380;7.018;2022-09-09T12:09:47;21.90;99.90
39099;DHT22;24844;52.380;7.018;2022-09-09T12:17:26;22.00;99.90
39099;DHT22;24844;52.380;7.018;2022-09-09T12:20:15;21.90;99.90
39099;DHT22;24844;52.380;7.018;2022-09-09T12:28:20;21.70;99.90
39099;DHT22;24844;52.380;7.018;2022-09-09T12:31:20;21.60;99.90
39099;DHT22;24844;52.380;7.018;2022-09-09T12:33:48;21.80;99.90
39099;DHT22;24844;52.380;7.018;2022-09-09T12:36:21;22.00;99.90
39099;DHT22;24844;52.380;7.018;2022-09-09T12:38:48;22.20;99.90
39099;DHT22;24844;52.380;7.018;2022-09-09T12:41:21;22.10;99.90
39099;DHT22;24844;52.380;7.018;2022-09-09T12:43:46;21.70;99.90
39099;DHT22;24844;52.380;7.018;2022-09-09T12:46:32;21.30;99.90
39099;DHT22;24844;52.380;7.018;2022-09-09T12:48:59;21.00;99.90
39099;DHT22;24844;52.380;7.018;2022-09-09T12:51:28;20.80;99.90
39099;DHT22;24844;52.380;7.018;2022-09-09T12:53:54;20.80;99.90
39099;DHT22;24844;52.380;7.018;2022-09-09T12:56:26;20.80;99.90
39099;DHT22;24844;52.380;7.018;2022-09-09T12:58:53;21.00;99.90
39099;DHT22;24844;52.380;7.018;2022-09-09T13:01:24;20.80;99.90
39099;DHT22;24844;52.380;7.018;2022-09-09T13:03:50;21.00;99.90
39099;DHT22;24844;52.380;7.018;2022-09-09T13:06:30;21.10;99.90
39099;DHT22;24844;52.380;7.018;2022-09-09T13:08:59;21.10;99.90
39099;DHT22;24844;52.380;7.018;2022-09-09T13:11:41;21.00;99.90
39099;DHT22;24844;52.380;7.018;2022-09-09T13:14:16;21.00;99.90
39099;DHT22;24844;52.380;7.018;2022-09-09T13:16:58;21.40;99.90
39099;DHT22;24844;52.380;7.018;2022-09-09T13:19:24;21.80;99.90
39099;DHT22;24844;52.380;7.018;2022-09-09T13:21:54;21.50;99.90
39099;DHT22;24844;52.380;7.018;2022-09-09T13:26:59;21.50;99.90
39099;DHT22;24844;52.380;7.018;2022-09-09T13:29:30;21.30;99.90
39099;DHT22;24844;52.380;7.018;2022-09-09T13:32:07;21.70;99.90
39099;DHT22;24844;52.380;7.018;2022-09-09T13:34:38;21.70;99.90
39099;DHT22;24844;52.380;7.018;2022-09-09T13:37:13;21.30;99.90
39099;DHT22;24844;52.380;7.018;2022-09-09T13:39:51;20.70;99.90
39099;DHT22;24844;52.380;7.018;2022-09-09T13:42:29;19.90;99.90
39099;DHT22;24844;52.380;7.018;2022-09-09T13:44:56;18.90;99.90
39099;DHT22;24844;52.380;7.018;2022-09-09T13:47:35;18.10;99.90
39099;DHT22;24844;52.380;7.018;2022-09-09T13:52:46;17.40;99.90
39099;DHT22;24844;52.380;7.018;2022-09-09T13:55:12;17.30;99.90
39099;DHT22;24844;52.380;7.018;2022-09-09T13:57:38;17.10;99.90
39099;DHT22;24844;52.380;7.018;2022-09-09T14:00:04;17.10;99.90
39099;DHT22;24844;52.380;7.018;2022-09-09T14:02:32;17.20;99.90
39099;DHT22;24844;52.380;7.018;2022-09-09T14:04:58;17.10;99.90
39099;DHT22;24844;52.380;7.018;2022-09-09T14:07:24;17.10;99.90
39099;DHT22;24844;52.380;7.018;2022-09-09T14:09:50;17.10;99.90
39099;DHT22;24844;52.380;7.018;2022-09-09T14:12:17;17.10;99.90
39099;DHT22;24844;52.380;7.018;2022-09-09T14:14:43;17.20;99.90
39099;DHT22;24844;52.380;7.018;2022-09-09T14:17:09;17.30;99.90
39099;DHT22;24844;52.380;7.018;2022-09-09T14:19:35;17.30;99.90
39099;DHT22;24844;52.380;7.018;2022-09-09T14:22:02;17.40;99.90
39099;DHT22;24844;52.380;7.018;2022-09-09T14:24:28;17.40;99.90
39099;DHT22;24844;52.380;7.018;2022-09-09T14:26:54;17.50;99.90
39099;DHT22;24844;52.380;7.018;2022-09-09T14:29:20;17.50;99.90
39099;DHT22;24844;52.380;7.018;2022-09-09T14:31:45;17.30;99.90
39099;DHT22;24844;52.380;7.018;2022-09-09T14:34:11;17.10;99.90
39099;DHT22;24844;52.380;7.018;2022-09-09T14:36:37;17.00;99.90
39099;DHT22;24844;52.380;7.018;2022-09-09T14:39:04;16.70;99.90
39099;DHT22;24844;52.380;7.018;2022-09-09T14:41:30;16.60;99.90
39099;DHT22;24844;52.380;7.018;2022-09-09T14:43:55;16.60;99.90
39099;DHT22;24844;52.380;7.018;2022-09-09T14:46:21;16.70;99.90
39099;DHT22;24844;52.380;7.018;2022-09-09T14:48:47;16.50;99.90
39099;DHT22;24844;52.380;7.018;2022-09-09T14:51:21;16.60;99.90
39099;DHT22;24844;52.380;7.018;2022-09-09T14:53:58;16.60;99.90
39099;DHT22;24844;52.380;7.018;2022-09-09T14:56:26;16.30;99.90
39099;DHT22;24844;52.380;7.018;2022-09-09T14:58:57;16.30;99.90
39099;DHT22;24844;52.380;7.018;2022-09-09T15:01:24;16.40;99.90
39099;DHT22;24844;52.380;7.018;2022-09-09T15:04:00;16.30;99.90
39099;DHT22;24844;52.380;7.018;2022-09-09T15:06:28;16.40;99.90
39099;DHT22;24844;52.380;7.018;2022-09-09T15:08:55;16.20;99.90
39099;DHT22;24844;52.380;7.018;2022-09-09T15:11:25;16.00;99.90
39099;DHT22;24844;52.380;7.018;2022-09-09T15:13:53;16.20;99.90
39099;DHT22;24844;52.380;7.018;2022-09-09T15:16:20;16.20;99.90
39099;DHT22;24844;52.380;7.018;2022-09-09T15:18:50;16.20;99.90
39099;DHT22;24844;52.380;7.018;2022-09-09T15:21:18;16.20;99.90
39099;DHT22;24844;52.380;7.018;2022-09-09T15:23:47;16.20;99.90
39099;DHT22;24844;52.380;7.018;2022-09-09T15:26:17;16.40;99.90
39099;DHT22;24844;52.380;7.018;2022-09-09T15:28:44;16.20;99.90
39099;DHT22;24844;52.380;7.018;2022-09-09T15:31:21;16.20;99.90
39099;DHT22;24844;52.380;7.018;2022-09-09T15:33:52;16.40;99.90
39099;DHT22;24844;52.380;7.018;2022-09-09T15:36:23;16.40;99.90
39099;DHT22;24844;52.380;7.018;2022-09-09T15:38:50;16.30;99.90
39099;DHT22;24844;52.380;7.018;2022-09-09T15:41:17;16.30;99.90
39099;DHT22;24844;52.380;7.018;2022-09-09T15:43:44;16.40;99.90
39099;DHT22;24844;52.380;7.018;2022-09-09T15:46:34;16.30;99.90
39099;DHT22;24844;52.380;7.018;2022-09-09T15:49:11;16.30;99.90
39099;DHT22;24844;52.380;7.018;2022-09-09T15:51:39;16.10;99.90
39099;DHT22;24844;52.380;7.018;2022-09-09T15:54:05;16.10;99.90
39099;DHT22;24844;52.380;7.018;2022-09-09T15:56:31;16.00;99.90
39099;DHT22;24844;52.380;7.018;2022-09-09T15:58:58;16.00;99.90
39099;DHT22;24844;52.380;7.018;2022-09-09T16:01:25;16.00;99.90
39099;DHT22;24844;52.380;7.018;2022-09-09T16:03:52;16.00;99.90
39099;DHT22;24844;52.380;7.018;2022-09-09T16:06:21;16.00;99.90
39099;DHT22;24844;52.380;7.018;2022-09-09T16:08:52;16.10;99.90
39099;DHT22;24844;52.380;7.018;2022-09-09T16:11:23;16.20;99.90
39099;DHT22;24844;52.380;7.018;2022-09-09T16:13:51;16.20;99.90
39099;DHT22;24844;52.380;7.018;2022-09-09T16:16:19;16.10;99.90
39099;DHT22;24844;52.380;7.018;2022-09-09T16:18:49;16.10;99.90
39099;DHT22;24844;52.380;7.018;2022-09-09T16:21:17;16.10;99.90
39099;DHT22;24844;52.380;7.018;2022-09-09T16:23:43;16.00;99.90
39099;DHT22;24844;52.380;7.018;2022-09-09T16:26:12;16.00;99.90
39099;DHT22;24844;52.380;7.018;2022-09-09T16:28:37;16.00;99.90
39099;DHT22;24844;52.380;7.018;2022-09-09T16:31:05;16.20;99.90
39099;DHT22;24844;52.380;7.018;2022-09-09T16:33:31;16.50;99.90
39099;DHT22;24844;52.380;7.018;2022-09-09T16:35:57;16.80;99.90
39099;DHT22;24844;52.380;7.018;2022-09-09T16:38:22;17.00;99.90
39099;DHT22;24844;52.380;7.018;2022-09-09T16:40:48;17.10;99.90
39099;DHT22;24844;52.380;7.018;2022-09-09T16:43:14;17.10;99.90
39099;DHT22;24844;52.380;7.018;2022-09-09T16:45:44;17.00;99.90
39099;DHT22;24844;52.380;7.018;2022-09-09T16:48:10;17.10;99.90
39099;DHT22;24844;52.380;7.018;2022-09-09T16:50:36;17.00;99.90
39099;DHT22;24844;52.380;7.018;2022-09-09T16:53:02;16.70;99.90
39099;DHT22;24844;52.380;7.018;2022-09-09T16:55:31;16.60;99.90
39099;DHT22;24844;52.380;7.018;2022-09-09T16:57:57;16.40;99.90
39099;DHT22;24844;52.380;7.018;2022-09-09T17:00:23;16.20;99.90
39099;DHT22;24844;52.380;7.018;2022-09-09T17:02:49;16.30;99.90
39099;DHT22;24844;52.380;7.018;2022-09-09T17:05:14;16.30;99.90
39099;DHT22;24844;52.380;7.018;2022-09-09T17:07:40;16.40;99.90
39099;DHT22;24844;52.380;7.018;2022-09-09T17:10:06;16.20;99.90
39099;DHT22;24844;52.380;7.018;2022-09-09T17:12:32;16.20;99.90
39099;DHT22;24844;52.380;7.018;2022-09-09T17:14:58;16.30;99.90
39099;DHT22;24844;52.380;7.018;2022-09-09T17:17:25;16.10;99.90
39099;DHT22;24844;52.380;7.018;2022-09-09T17:19:52;16.20;99.90
39099;DHT22;24844;52.380;7.018;2022-09-09T17:22:17;16.30;99.90
39099;DHT22;24844;52.380;7.018;2022-09-09T17:24:43;16.20;99.90
39099;DHT22;24844;52.380;7.018;2022-09-09T17:27:09;16.20;99.90
39099;DHT22;24844;52.380;7.018;2022-09-09T17:29:35;16.20;99.90
39099;DHT22;24844;52.380;7.018;2022-09-09T17:32:02;16.10;99.90
39099;DHT22;24844;52.380;7.018;2022-09-09T17:34:27;16.10;99.90
39099;DHT22;24844;52.380;7.018;2022-09-09T17:36:53;16.10;99.90
39099;DHT22;24844;52.380;7.018;2022-09-09T17:39:19;16.00;99.90
39099;DHT22;24844;52.380;7.018;2022-09-09T17:41:44;16.00;99.90
39099;DHT22;24844;52.380;7.018;2022-09-09T17:44:10;16.20;99.90
39099;DHT22;24844;52.380;7.018;2022-09-09T17:46:38;16.10;99.90
39099;DHT22;24844;52.380;7.018;2022-09-09T17:49:08;16.00;99.90